| time (UTC) | temp F | wind direction | speed knots | gust knots | rain 1hr in | rain 24hr in | rain mn in | humidity % | barometer mb |
| 20260509064531 | 46 | 215 | 0.9 | 1.7 | 0.00 | 0.00 | 0.00 | 57 | 1004.9 |
| 20260509063029 | 45 | 212 | 0.0 | 1.7 | 0.00 | 0.00 | 0.00 | 61 | 1004.9 |
| 20260509061528 | 44 | 0 | 0.0 | 0.9 | 0.00 | 0.00 | 0.00 | 61 | 1005.2 |
| 20260509060028 | 45 | 0 | 0.0 | 0.9 | 0.00 | 0.00 | 0.00 | 64 | 1005.3 |
| 20260509054531 | 45 | 212 | 0.0 | 0.9 | 0.00 | 0.00 | 0.00 | 60 | 1005.7 |
| 20260509053041 | 46 | 0 | 0.0 | 0.9 | 0.00 | 0.00 | 0.00 | 58 | 1005.7 |
| 20260509051535 | 46 | 212 | 0.0 | 0.9 | 0.00 | 0.00 | 0.00 | 60 | 1005.8 |
| 20260509050028 | 46 | 212 | 0.0 | 0.9 | 0.00 | 0.00 | 0.00 | 60 | 1005.8 |
| 20260509044526 | 47 | 0 | 0.0 | 0.9 | 0.00 | 0.00 | 0.00 | 58 | 1005.9 |
| 20260509043033 | 48 | 0 | 0.0 | 1.7 | 0.00 | 0.00 | 0.00 | 54 | 1005.9 |
| 20260509041526 | 48 | 212 | 0.0 | 0.9 | 0.00 | 0.00 | 0.00 | 54 | 1006.1 |
| 20260509040032 | 48 | 0 | 0.0 | 0.9 | 0.00 | 0.00 | 0.00 | 53 | 1006.2 |
| 20260509034535 | 49 | 0 | 0.0 | 0.9 | 0.00 | 0.00 | 0.00 | 55 | 1006.5 |
| 20260509033028 | 50 | 0 | 0.0 | 0.9 | 0.00 | 0.00 | 0.00 | 50 | 1006.6 |
| 20260509031547 | 51 | 0 | 0.0 | 1.7 | 0.00 | 0.00 | 0.00 | 47 | 1006.8 |
| 20260509030047 | 50 | 0 | 0.0 | 1.7 | 0.00 | 0.00 | 0.00 | 51 | 1006.9 |
| 20260509024534 | 51 | 0 | 0.0 | 0.9 | 0.00 | 0.00 | 0.00 | 48 | 1007.0 |
| 20260509023034 | 51 | 0 | 0.0 | 0.9 | 0.00 | 0.00 | 0.00 | 47 | 1007.1 |
| 20260509021535 | 52 | 0 | 0.0 | 0.9 | 0.00 | 0.00 | 0.00 | 46 | 1007.1 |
| 20260509020031 | 53 | 0 | 0.0 | 0.0 | 0.00 | 0.00 | 0.00 | 44 | 1007.0 |
| 20260509014530 | 54 | 0 | 0.0 | 0.0 | 0.00 | 0.00 | 0.00 | 41 | 1006.9 |
| 20260509013028 | 56 | 0 | 0.0 | 0.0 | 0.00 | 0.00 | 0.00 | 39 | 1006.7 |
| 20260509011530 | 57 | 217 | 0.0 | 0.9 | 0.00 | 0.00 | 0.00 | 33 | 1006.8 |
| 20260509010029 | 59 | 0 | 0.0 | 0.9 | 0.00 | 0.00 | 0.00 | 32 | 1006.7 |
| 20260509004541 | 60 | 0 | 0.0 | 2.6 | 0.00 | 0.00 | 0.00 | 31 | 1006.7 |
| 20260509003035 | 61 | 216 | 1.7 | 3.5 | 0.00 | 0.00 | 0.00 | 29 | 1006.6 |
| 20260509001532 | 61 | 232 | 1.7 | 7.0 | 0.00 | 0.00 | 0.00 | 28 | 1006.5 |
| 20260509000027 | 61 | 240 | 1.7 | 7.0 | 0.00 | 0.00 | 0.00 | 28 | 1006.4 |
| 20260508234527 | 62 | 208 | 1.7 | 7.8 | 0.00 | 0.00 | 0.00 | 27 | 1006.5 |
| 20260508233030 | 62 | 241 | 2.6 | 6.1 | 0.00 | 0.00 | 0.00 | 26 | 1006.6 |
| 20260508231529 | 62 | 205 | 2.6 | 6.1 | 0.00 | 0.00 | 0.00 | 27 | 1006.6 |
| 20260508230025 | 61 | 217 | 1.7 | 7.8 | 0.00 | 0.00 | 0.00 | 26 | 1006.6 |
| 20260508224528 | 62 | 247 | 2.6 | 7.0 | 0.00 | 0.00 | 0.00 | 26 | 1006.7 |
| 20260508223041 | 62 | 223 | 2.6 | 7.8 | 0.00 | 0.00 | 0.00 | 26 | 1006.8 |
| 20260508221528 | 62 | 308 | 3.5 | 7.8 | 0.00 | 0.00 | 0.00 | 25 | 1006.9 |
| 20260508220028 | 62 | 223 | 4.3 | 9.6 | 0.00 | 0.00 | 0.00 | 25 | 1006.9 |
| 20260508214527 | 63 | 190 | 5.2 | 9.6 | 0.00 | 0.00 | 0.00 | 26 | 1007.0 |
| 20260508213030 | 63 | 205 | 3.5 | 8.7 | 0.00 | 0.00 | 0.00 | 25 | 1007.0 |
| 20260508211529 | 62 | 252 | 2.6 | 10.4 | 0.00 | 0.00 | 0.00 | 26 | 1007.2 |
| 20260508210031 | 62 | 217 | 4.3 | 9.6 | 0.00 | 0.00 | 0.00 | 25 | 1007.3 |
| 20260508204529 | 63 | 190 | 4.3 | 10.4 | 0.00 | 0.00 | 0.00 | 25 | 1007.5 |
| 20260508203028 | 63 | 220 | 1.7 | 6.1 | 0.00 | 0.00 | 0.00 | 26 | 1007.6 |
| 20260508201527 | 62 | 221 | 1.7 | 6.1 | 0.00 | 0.00 | 0.00 | 28 | 1007.8 |
| 20260508200032 | 61 | 253 | 2.6 | 6.1 | 0.00 | 0.00 | 0.00 | 28 | 1008.1 |
| 20260508194536 | 61 | 246 | 3.5 | 8.7 | 0.00 | 0.00 | 0.00 | 26 | 1008.2 |
| 20260508193028 | 61 | 186 | 2.6 | 7.0 | 0.00 | 0.00 | 0.00 | 28 | 1008.3 |
| 20260508191535 | 62 | 213 | 3.5 | 10.4 | 0.00 | 0.00 | 0.00 | 27 | 1008.6 |
| 20260508190028 | 60 | 226 | 7.0 | 12.2 | 0.00 | 0.00 | 0.00 | 27 | 1008.9 |
| 20260508184528 | 60 | 229 | 3.5 | 7.0 | 0.00 | 0.00 | 0.00 | 29 | 1009.0 |
| 20260508183033 | 61 | 180 | 3.5 | 8.7 | 0.00 | 0.00 | 0.00 | 28 | 1009.2 |
| 20260508181531 | 60 | 259 | 1.7 | 10.4 | 0.00 | 0.00 | 0.00 | 29 | 1009.4 |
| 20260508180028 | 60 | 220 | 4.3 | 9.6 | 0.00 | 0.00 | 0.00 | 26 | 1009.6 |
| 20260508174528 | 59 | 198 | 2.6 | 9.6 | 0.00 | 0.00 | 0.00 | 28 | 1009.7 |
| 20260508173028 | 59 | 315 | 0.0 | 4.3 | 0.00 | 0.00 | 0.00 | 32 | 1009.9 |
| 20260508171529 | 58 | 242 | 2.6 | 8.7 | 0.00 | 0.00 | 0.00 | 29 | 1010.2 |
| 20260508170028 | 58 | 161 | 0.9 | 6.1 | 0.00 | 0.00 | 0.00 | 31 | 1010.2 |
| 20260508164528 | 57 | 246 | 2.6 | 7.8 | 0.00 | 0.00 | 0.00 | 35 | 1010.6 |
| 20260508163032 | 57 | 232 | 5.2 | 10.4 | 0.00 | 0.00 | 0.00 | 32 | 1010.9 |
| 20260508161526 | 56 | 159 | 3.5 | 7.0 | 0.00 | 0.00 | 0.00 | 32 | 1011.0 |
| 20260508160027 | 55 | 273 | 2.6 | 9.6 | 0.00 | 0.00 | 0.00 | 36 | 1010.9 |
| 20260508154530 | 55 | 225 | 2.6 | 7.0 | 0.00 | 0.00 | 0.00 | 36 | 1011.1 |
| 20260508153037 | 54 | 222 | 3.5 | 8.7 | 0.00 | 0.00 | 0.00 | 35 | 1011.2 |
| 20260508151528 | 54 | 219 | 2.6 | 6.1 | 0.00 | 0.00 | 0.00 | 42 | 1011.3 |
| 20260508150049 | 53 | 259 | 1.7 | 6.1 | 0.00 | 0.00 | 0.00 | 45 | 1011.3 |
| 20260508144527 | 52 | 227 | 3.5 | 9.6 | 0.00 | 0.00 | 0.00 | 48 | 1011.4 |
| 20260508143027 | 52 | 159 | 2.6 | 7.0 | 0.00 | 0.00 | 0.00 | 49 | 1011.6 |
| 20260508141530 | 52 | 188 | 1.7 | 6.1 | 0.00 | 0.00 | 0.00 | 50 | 1011.8 |
| 20260508140030 | 50 | 211 | 2.6 | 7.0 | 0.00 | 0.00 | 0.00 | 54 | 1011.8 |
| 20260508134529 | 49 | 229 | 2.6 | 6.1 | 0.00 | 0.00 | 0.00 | 55 | 1011.9 |
| 20260508133028 | 49 | 232 | 2.6 | 6.1 | 0.00 | 0.00 | 0.00 | 57 | 1011.9 |
| 20260508131529 | 48 | 205 | 1.7 | 5.2 | 0.00 | 0.00 | 0.00 | 62 | 1011.9 |
| 20260508130026 | 47 | 199 | 1.7 | 4.3 | 0.00 | 0.00 | 0.00 | 64 | 1011.9 |
| 20260508124528 | 46 | 219 | 1.7 | 7.0 | 0.00 | 0.00 | 0.00 | 68 | 1011.8 |
| 20260508123028 | 45 | 202 | 1.7 | 4.3 | 0.00 | 0.00 | 0.00 | 70 | 1011.8 |
| 20260508121527 | 43 | 237 | 1.7 | 3.5 | 0.00 | 0.00 | 0.00 | 72 | 1011.7 |
| 20260508120028 | 42 | 223 | 0.9 | 3.5 | 0.00 | 0.00 | 0.00 | 77 | 1011.6 |
| 20260508114526 | 39 | 240 | 0.0 | 1.7 | 0.00 | 0.00 | 0.00 | 87 | 1011.6 |
| 20260508113030 | 36 | 0 | 0.0 | 0.9 | 0.00 | 0.00 | 0.00 | 90 | 1011.3 |
| 20260508111529 | 34 | 0 | 0.0 | 0.0 | 0.00 | 0.00 | 0.00 | 90 | 1011.3 |
| 20260508110028 | 34 | 240 | 0.9 | 1.7 | 0.00 | 0.00 | 0.00 | 90 | 1011.3 |
| 20260508104528 | 33 | 0 | 0.0 | 0.9 | 0.00 | 0.00 | 0.00 | 90 | 1011.4 |
| 20260508103028 | 33 | 0 | 0.0 | 0.0 | 0.00 | 0.00 | 0.00 | 90 | 1011.4 |
| 20260508101529 | 33 | 0 | 0.0 | 0.9 | 0.00 | 0.00 | 0.00 | 90 | 1011.4 |
| 20260508100033 | 34 | 0 | 0.0 | 0.0 | 0.00 | 0.00 | 0.00 | 90 | 1011.4 |
| 20260508094528 | 34 | 0 | 0.0 | 0.9 | 0.00 | 0.00 | 0.00 | 90 | 1011.6 |
| 20260508093035 | 34 | 0 | 0.0 | 0.0 | 0.00 | 0.00 | 0.00 | 89 | 1011.5 |
| 20260508091528 | 35 | 0 | 0.0 | 0.9 | 0.00 | 0.00 | 0.00 | 89 | 1011.7 |
| 20260508090034 | 35 | 0 | 0.0 | 0.9 | 0.00 | 0.00 | 0.00 | 89 | 1011.6 |
| 20260508084528 | 35 | 0 | 0.0 | 0.9 | 0.00 | 0.00 | 0.00 | 89 | 1011.5 |
| 20260508083027 | 36 | 0 | 0.0 | 0.9 | 0.00 | 0.00 | 0.00 | 89 | 1011.6 |
| 20260508081530 | 37 | 0 | 0.0 | 0.0 | 0.00 | 0.00 | 0.00 | 89 | 1011.5 |
| 20260508080050 | 37 | 0 | 0.0 | 0.0 | 0.00 | 0.00 | 0.00 | 88 | 1011.7 |
| 20260508074528 | 38 | 240 | 0.0 | 0.9 | 0.00 | 0.00 | 0.00 | 87 | 1011.7 |
| 20260508073027 | 38 | 0 | 0.0 | 0.9 | 0.00 | 0.00 | 0.00 | 85 | 1011.7 |
| 20260508071526 | 39 | 0 | 0.0 | 0.0 | 0.00 | 0.00 | 0.00 | 85 | 1011.8 |
| 20260508070028 | 40 | 0 | 0.0 | 0.0 | 0.00 | 0.00 | 0.00 | 83 | 1011.9 |